Saint Petersburg, FL (33708)

4:27 PM EDT on September 02, 2015 (GMT -0400)
Madeira Beach, FL | | Change Station
CLOSE
Current Station
Personal Weather Station
Location: Madeira Beach, FL
Elevation: 16 ft
Nearby Weather Stations

Elev 16 ft 27.79 °N, 82.78 °W | Updated 11 minutes ago

Clear
Clear
91.3 °F
Feels Like 108 °F
N
0.0
Wind Variable Wind from SW
Gusts 6.0 mph

Today
High -- | Low -- °F
--% Chance of Precip.
Yesterday
High -- | Low -- °F
Precip. -- in
7:10 AM 7:51 PM
Waning Gibbous, 77% visible
Pressure 30.01 in
Visibility 10.0 miles
Clouds Scattered Clouds 3000 ft
Heat Index 108 °F
Dew Point 79 °F
Humidity 67%
Rainfall 0.11 in
Snow Depth Not available.
UV 8 out of 12
Pollen 2.70 out of 12
Air Quality Not available.
Flu Activity Not available.
METAR KPIE 021953Z 32006KT 10SM SCT030 32/24 A3001 RMK AO2 LTG DSNT SE SLP163 T03170239
Pressure 30.01 in
Visibility 10.0 miles
Clouds Scattered Clouds 3000 ft
Heat Index 108 °F
Dew Point 79 °F
Humidity 67%
Rainfall 0.11 in
Snow Depth Not available.
UV 8 out of 12
Pollen 2.70 out of 12
Air Quality Not available.
Flu Activity Not available.
METAR KPIE 021953Z 32006KT 10SM SCT030 32/24 A3001 RMK AO2 LTG DSNT SE SLP163 T03170239

10-Day Weather Forecast

×

Almanac

Astronomy

Sep. 02, 2015 Rise Set
Actual Time
Civil Twilight
Nautical Twilight
Astronomical Twilight
Moon
Length of Visible Light
Length of Day
Tomorrow will be .
, % of the Moon is Illuminated

Today's Extremes

State Highs State Lows

Community

WunderPhotos

Upload Photos

1,851,804 photos uploaded!

WunderBlogs® & News

Nearby

Air Quality

  Air Quality AQ Index Pollutant
Not available.

Snow Depth

Station Depth Elevation

Earthquake Activity

City Distance Mag. Time & Date
Minimum magnitude displayed is 2.5.

Coastal Water Temperatures

Place Temperature

Stations

Nearby Weather Stations

Station Location Temp. Windchill Dew Point Humidity Wind Precip. Elev Updated Type